createdAt,value
2022-10-30T00:00:48.768Z,19.57
2022-10-30T00:03:17.327Z,21.50
2022-10-30T00:05:47.059Z,19.40
2022-10-30T00:08:16.589Z,20.07
2022-10-30T00:10:44.821Z,14.77
2022-10-30T00:13:12.780Z,17.67
2022-10-30T00:15:40.303Z,18.47
2022-10-30T00:18:07.456Z,17.10
2022-10-30T00:20:36.739Z,17.30
2022-10-30T00:23:03.887Z,15.07
2022-10-30T00:25:31.044Z,16.50
2022-10-30T00:27:58.313Z,15.93
2022-10-30T00:30:25.449Z,17.93
2022-10-30T00:32:52.589Z,17.07
2022-10-30T00:35:19.770Z,16.50
2022-10-30T00:37:46.912Z,14.43
2022-10-30T00:40:18.115Z,14.50
2022-10-30T00:42:45.311Z,15.47
2022-10-30T00:45:14.730Z,14.43
2022-10-30T00:47:46.455Z,14.70
2022-10-30T00:52:57.307Z,14.70
2022-10-30T00:55:30.448Z,16.30
2022-10-30T00:58:01.839Z,16.13
2022-10-30T01:00:30.803Z,17.57
2022-10-30T01:02:59.158Z,15.93
2022-10-30T01:05:32.212Z,16.10
2022-10-30T01:07:59.945Z,14.70
2022-10-30T01:10:27.734Z,17.87
2022-10-30T01:12:56.641Z,16.53
2022-10-30T01:15:30.352Z,14.63
2022-10-30T01:18:11.091Z,15.27
2022-10-30T01:21:06.567Z,14.90
2022-10-30T01:23:45.714Z,15.43
2022-10-30T01:26:25.997Z,14.70
2022-10-30T01:29:31.089Z,14.80
2022-10-30T01:32:37.733Z,12.50
2022-10-30T01:35:23.977Z,14.83
2022-10-30T01:38:01.917Z,15.50
2022-10-30T01:40:29.437Z,14.00
2022-10-30T01:42:58.120Z,12.33
2022-10-30T01:45:54.738Z,12.87
2022-10-30T01:48:50.227Z,14.10
2022-10-30T01:51:43.105Z,14.57
2022-10-30T01:54:40.407Z,14.57
2022-10-30T01:57:21.620Z,13.40
2022-10-30T02:00:06.354Z,13.70
2022-10-30T02:02:41.349Z,14.47
2022-10-30T02:05:16.852Z,12.83
2022-10-30T02:07:44.040Z,11.77
2022-10-30T02:10:12.922Z,12.53
2022-10-30T02:12:40.549Z,13.67
2022-10-30T02:15:11.042Z,12.80
2022-10-30T02:17:40.454Z,13.03
2022-10-30T02:20:14.289Z,13.30
2022-10-30T02:22:41.581Z,12.93
2022-10-30T02:25:09.467Z,13.50
2022-10-30T02:27:36.841Z,13.63
2022-10-30T02:30:04.931Z,13.23
2022-10-30T02:32:32.528Z,13.00
2022-10-30T02:35:00.370Z,13.13
2022-10-30T02:37:27.568Z,12.57
2022-10-30T02:39:54.728Z,11.67
2022-10-30T02:42:23.084Z,11.23
2022-10-30T02:44:52.969Z,11.60
2022-10-30T02:47:20.244Z,11.07
2022-10-30T02:49:47.408Z,11.50
2022-10-30T02:52:15.057Z,11.83
2022-10-30T02:54:42.854Z,12.50
2022-10-30T02:57:10.336Z,12.80
2022-10-30T02:59:38.508Z,13.60
2022-10-30T03:02:05.953Z,14.17
2022-10-30T03:04:33.215Z,15.30
2022-10-30T03:07:00.352Z,14.90
2022-10-30T03:09:27.684Z,16.90
2022-10-30T03:11:54.846Z,16.70
2022-10-30T03:14:23.692Z,16.17
2022-10-30T03:16:52.433Z,14.33
2022-10-30T03:19:19.836Z,13.20
2022-10-30T03:21:47.159Z,14.63
2022-10-30T03:24:14.986Z,14.53
2022-10-30T03:26:42.241Z,14.10
2022-10-30T03:29:09.422Z,15.00
2022-10-30T03:31:36.613Z,14.90
2022-10-30T03:34:19.823Z,12.33
2022-10-30T03:36:47.022Z,14.70
2022-10-30T03:39:14.463Z,12.03
2022-10-30T03:41:43.897Z,14.03
2022-10-30T03:44:12.890Z,11.97
2022-10-30T03:46:40.061Z,12.73
2022-10-30T03:49:36.737Z,12.50
2022-10-30T03:52:09.284Z,11.87
2022-10-30T03:54:36.567Z,11.40
2022-10-30T03:57:04.081Z,11.67
2022-10-30T03:59:39.844Z,11.07
2022-10-30T04:02:39.724Z,11.83
2022-10-30T04:05:08.813Z,10.60
2022-10-30T04:07:35.999Z,11.50
2022-10-30T04:10:03.487Z,10.57
2022-10-30T04:12:30.777Z,11.30
2022-10-30T04:14:57.957Z,10.87
2022-10-30T04:17:25.308Z,10.23
2022-10-30T04:19:52.662Z,10.30
2022-10-30T04:22:20.059Z,10.33
2022-10-30T04:24:49.443Z,10.10
2022-10-30T04:27:16.675Z,10.53
2022-10-30T04:29:43.977Z,11.20
2022-10-30T04:32:11.278Z,9.67
2022-10-30T04:34:39.420Z,9.73
2022-10-30T04:37:07.403Z,10.13
2022-10-30T04:39:34.641Z,9.97
2022-10-30T04:42:11.739Z,10.30
2022-10-30T04:44:41.228Z,10.50
2022-10-30T04:47:09.749Z,9.30
2022-10-30T04:49:36.963Z,10.10
2022-10-30T04:52:04.340Z,9.53
2022-10-30T04:54:32.057Z,9.70
2022-10-30T04:56:59.497Z,10.17
2022-10-30T04:59:26.672Z,10.50
2022-10-30T05:01:54.987Z,9.70
2022-10-30T05:04:22.592Z,10.27
2022-10-30T05:06:50.433Z,8.90
2022-10-30T05:09:17.580Z,8.87
2022-10-30T05:11:44.825Z,9.27
2022-10-30T05:14:12.242Z,10.43
2022-10-30T05:16:39.430Z,9.30
2022-10-30T05:19:07.251Z,10.00
2022-10-30T05:21:35.328Z,10.03
2022-10-30T05:24:02.750Z,9.93
2022-10-30T05:26:38.047Z,10.80
2022-10-30T05:29:05.360Z,10.90
2022-10-30T05:31:32.876Z,10.20
2022-10-30T05:34:20.161Z,9.57
2022-10-30T05:36:50.951Z,10.70
2022-10-30T05:39:19.055Z,9.47
2022-10-30T05:41:49.302Z,8.97
2022-10-30T05:44:28.847Z,10.57
2022-10-30T05:47:06.174Z,10.17
2022-10-30T05:49:35.437Z,9.70
2022-10-30T05:52:05.857Z,9.00
2022-10-30T05:54:33.212Z,10.00
2022-10-30T05:57:23.591Z,10.53
2022-10-30T05:59:51.184Z,8.63
2022-10-30T06:02:18.366Z,10.07
2022-10-30T06:04:45.574Z,9.60
2022-10-30T06:07:15.016Z,10.40
2022-10-30T06:09:43.049Z,10.00
2022-10-30T06:12:29.034Z,11.07
2022-10-30T06:15:06.052Z,10.67
2022-10-30T06:17:33.691Z,9.70
2022-10-30T06:20:13.216Z,10.33
2022-10-30T06:23:00.698Z,10.37
2022-10-30T06:25:41.134Z,9.43
2022-10-30T06:28:14.127Z,11.03
2022-10-30T06:30:42.619Z,10.20
2022-10-30T06:33:10.782Z,10.60
2022-10-30T06:35:41.281Z,10.67
2022-10-30T06:38:10.419Z,10.40
2022-10-30T06:40:37.593Z,10.67
2022-10-30T06:43:35.790Z,9.87
2022-10-30T06:46:18.036Z,9.90
2022-10-30T06:48:46.417Z,10.43
2022-10-30T06:51:15.673Z,10.00
2022-10-30T06:53:43.671Z,9.27
2022-10-30T06:56:51.507Z,10.23
2022-10-30T06:59:43.351Z,9.73
2022-10-30T07:02:22.721Z,9.40
2022-10-30T07:04:56.626Z,10.10
2022-10-30T07:07:24.761Z,10.30
2022-10-30T07:09:52.417Z,9.80
2022-10-30T07:12:25.737Z,9.20
2022-10-30T07:15:00.223Z,9.60
2022-10-30T07:17:35.600Z,9.53
2022-10-30T07:20:10.039Z,9.90
2022-10-30T07:22:39.056Z,9.77
2022-10-30T07:25:06.518Z,9.43
2022-10-30T07:27:54.221Z,9.70
2022-10-30T07:30:41.947Z,9.00
2022-10-30T07:33:25.227Z,10.07
2022-10-30T07:36:07.876Z,8.97
2022-10-30T07:38:52.867Z,9.07
2022-10-30T07:41:30.808Z,9.10
2022-10-30T07:44:17.011Z,8.87
2022-10-30T07:46:47.876Z,8.20
2022-10-30T07:49:25.634Z,8.50
2022-10-30T07:51:58.077Z,8.17
2022-10-30T07:54:25.434Z,10.20
2022-10-30T07:56:54.539Z,8.60
2022-10-30T07:59:40.782Z,8.40
2022-10-30T08:02:40.024Z,8.73
2022-10-30T08:05:34.808Z,8.13
2022-10-30T08:08:09.135Z,8.20
2022-10-30T08:10:36.831Z,8.73
2022-10-30T08:13:04.101Z,8.67
2022-10-30T08:15:32.824Z,8.37
2022-10-30T08:18:00.543Z,8.03
2022-10-30T08:20:28.035Z,7.53
2022-10-30T08:22:57.929Z,9.70
2022-10-30T08:25:28.509Z,8.90
2022-10-30T08:28:06.999Z,8.07
2022-10-30T08:30:39.061Z,8.43
2022-10-30T08:33:15.970Z,9.37
2022-10-30T08:36:21.179Z,8.50
2022-10-30T08:38:48.324Z,8.50
2022-10-30T08:41:25.423Z,7.90
2022-10-30T08:43:53.833Z,6.97
2022-10-30T08:46:21.497Z,7.57
2022-10-30T08:48:48.842Z,8.17
2022-10-30T08:51:16.035Z,7.20
2022-10-30T08:53:47.551Z,7.90
2022-10-30T08:56:17.402Z,6.77
2022-10-30T08:59:04.825Z,7.27
2022-10-30T09:01:32.188Z,8.17
2022-10-30T09:04:19.784Z,6.37
2022-10-30T09:07:01.586Z,7.43
2022-10-30T09:09:47.408Z,6.97
2022-10-30T09:12:14.632Z,6.73
2022-10-30T09:14:44.833Z,6.63
2022-10-30T09:17:12.543Z,7.27
2022-10-30T09:19:43.858Z,7.73
2022-10-30T09:22:14.905Z,7.77
2022-10-30T09:24:42.802Z,6.37
2022-10-30T09:27:28.697Z,6.47
2022-10-30T09:29:58.143Z,6.93
2022-10-30T09:32:30.494Z,6.90
2022-10-30T09:35:06.642Z,7.33
2022-10-30T09:37:38.636Z,6.20
2022-10-30T09:40:29.669Z,7.20
2022-10-30T09:43:20.441Z,7.00
2022-10-30T09:46:00.048Z,6.63
2022-10-30T09:48:41.533Z,8.10
2022-10-30T09:51:38.508Z,6.87
2022-10-30T09:54:21.176Z,6.87
2022-10-30T09:57:10.093Z,7.23
2022-10-30T09:59:51.935Z,7.47
2022-10-30T10:02:54.098Z,7.40
2022-10-30T10:05:29.453Z,7.90
2022-10-30T10:08:29.479Z,7.90
2022-10-30T10:11:26.236Z,7.30
2022-10-30T10:14:13.488Z,7.80
2022-10-30T10:16:43.570Z,7.67
2022-10-30T10:19:20.472Z,7.13
2022-10-30T10:21:57.615Z,7.50
2022-10-30T10:24:32.536Z,7.50
2022-10-30T10:27:23.337Z,8.30
2022-10-30T10:30:04.868Z,6.67
2022-10-30T10:33:09.904Z,7.70
2022-10-30T10:35:37.011Z,6.93
2022-10-30T10:38:41.598Z,6.80
2022-10-30T10:41:30.826Z,7.30
2022-10-30T10:44:24.474Z,6.60
2022-10-30T10:47:35.187Z,7.40
2022-10-30T10:50:21.596Z,6.97
2022-10-30T10:53:02.545Z,6.87
2022-10-30T10:55:37.863Z,7.10
2022-10-30T10:58:30.305Z,6.90
2022-10-30T11:00:59.688Z,6.77
2022-10-30T11:03:27.409Z,6.77
2022-10-30T11:06:00.328Z,6.97
2022-10-30T11:08:35.596Z,6.87
2022-10-30T11:11:05.715Z,7.50
2022-10-30T11:13:38.736Z,6.90
2022-10-30T11:16:31.899Z,6.90
2022-10-30T11:19:02.323Z,7.37
2022-10-30T11:21:33.473Z,7.40
2022-10-30T11:24:01.042Z,6.90
2022-10-30T11:26:29.977Z,6.83
2022-10-30T11:29:05.460Z,6.83
2022-10-30T11:31:40.142Z,6.97
2022-10-30T11:34:19.281Z,5.83
2022-10-30T11:36:47.911Z,5.90
2022-10-30T11:39:32.495Z,6.37
2022-10-30T11:42:17.248Z,6.83
2022-10-30T11:44:49.402Z,7.83
2022-10-30T11:47:22.140Z,6.30
2022-10-30T11:49:59.130Z,6.63
2022-10-30T11:52:27.391Z,6.43
2022-10-30T11:55:02.334Z,5.90
2022-10-30T11:57:41.734Z,6.40
2022-10-30T12:00:22.167Z,5.87
2022-10-30T12:02:51.542Z,6.30
2022-10-30T12:05:29.792Z,6.17
2022-10-30T12:08:09.183Z,6.50
2022-10-30T12:10:45.376Z,6.47
2022-10-30T12:13:17.111Z,6.10
2022-10-30T12:15:47.667Z,5.47
2022-10-30T12:18:21.865Z,6.77
2022-10-30T12:20:53.394Z,6.60
2022-10-30T12:23:25.650Z,6.23
2022-10-30T12:26:01.561Z,6.57
2022-10-30T12:28:31.649Z,6.33
2022-10-30T12:31:33.995Z,6.13
2022-10-30T12:34:06.677Z,7.10
2022-10-30T12:36:40.436Z,5.80
2022-10-30T12:39:16.838Z,5.90
2022-10-30T12:41:56.276Z,6.37
2022-10-30T12:44:33.899Z,6.60
2022-10-30T12:47:17.859Z,6.47
2022-10-30T12:50:06.817Z,6.10
2022-10-30T12:52:53.733Z,6.20
2022-10-30T12:55:26.464Z,6.70
2022-10-30T12:58:11.028Z,7.30
2022-10-30T13:01:06.376Z,6.77
2022-10-30T13:03:42.231Z,7.77
2022-10-30T13:06:24.884Z,6.40
2022-10-30T13:09:21.492Z,6.50
2022-10-30T13:12:10.434Z,6.70
2022-10-30T13:14:46.957Z,6.57
2022-10-30T13:17:15.193Z,6.37
2022-10-30T13:19:45.178Z,7.00
2022-10-30T13:22:34.927Z,6.53
2022-10-30T13:25:33.280Z,6.53
2022-10-30T13:28:05.260Z,5.93
2022-10-30T13:30:39.313Z,6.40
2022-10-30T13:33:32.376Z,6.57
2022-10-30T13:36:25.519Z,7.10
2022-10-30T13:39:09.058Z,6.40
2022-10-30T13:42:09.802Z,6.77
2022-10-30T13:44:56.085Z,6.57
2022-10-30T13:47:46.070Z,6.77
2022-10-30T13:50:44.135Z,6.50
2022-10-30T13:53:21.152Z,6.23
2022-10-30T13:55:49.986Z,7.30
2022-10-30T13:58:20.614Z,6.70
2022-10-30T14:00:59.436Z,7.00
2022-10-30T14:03:56.921Z,7.10
2022-10-30T14:06:52.907Z,6.50
2022-10-30T14:09:23.177Z,6.40
2022-10-30T14:11:54.007Z,6.73
2022-10-30T14:14:30.811Z,6.47
2022-10-30T14:17:16.618Z,6.43
2022-10-30T14:20:12.078Z,6.37
2022-10-30T14:22:40.983Z,5.90
2022-10-30T14:25:15.756Z,6.70
2022-10-30T14:27:43.033Z,6.77
2022-10-30T14:30:20.293Z,6.63
2022-10-30T14:32:50.432Z,7.30
2022-10-30T14:35:35.634Z,7.07
2022-10-30T14:38:08.571Z,7.63
2022-10-30T14:40:41.875Z,6.80
2022-10-30T14:43:27.623Z,6.80
2022-10-30T14:46:10.299Z,7.90
2022-10-30T14:49:11.124Z,6.20
2022-10-30T14:51:49.334Z,7.20
2022-10-30T14:54:27.211Z,9.90
2022-10-30T14:56:54.381Z,10.00
2022-10-30T14:59:24.515Z,7.30
2022-10-30T15:02:04.439Z,8.20
2022-10-30T15:04:48.543Z,8.60
2022-10-30T15:07:44.737Z,8.40
2022-10-30T15:10:19.357Z,6.80
2022-10-30T15:12:51.285Z,7.60
2022-10-30T15:15:19.460Z,7.60
2022-10-30T15:17:52.581Z,7.40
2022-10-30T15:20:24.303Z,7.87
2022-10-30T15:22:57.560Z,7.83
2022-10-30T15:25:29.254Z,7.67
2022-10-30T15:27:57.981Z,8.20
2022-10-30T15:30:28.937Z,8.33
2022-10-30T15:32:56.181Z,8.70
2022-10-30T15:35:28.896Z,10.93
2022-10-30T15:38:07.541Z,17.30
2022-10-30T15:40:37.424Z,11.23
2022-10-30T15:43:10.221Z,12.63
2022-10-30T15:45:40.229Z,13.30
2022-10-30T15:48:29.878Z,14.00
2022-10-30T15:51:06.864Z,12.07
2022-10-30T15:53:42.776Z,17.00
2022-10-30T15:56:30.651Z,12.83
2022-10-30T15:59:13.732Z,8.13
2022-10-30T16:01:45.776Z,9.13
2022-10-30T16:04:19.139Z,8.40
2022-10-30T16:06:50.810Z,10.40
2022-10-30T16:09:18.377Z,11.47
2022-10-30T16:11:47.208Z,11.80
2022-10-30T16:14:18.422Z,12.57
2022-10-30T16:16:45.880Z,13.57
2022-10-30T16:19:26.368Z,14.00
2022-10-30T16:21:58.441Z,13.63
2022-10-30T16:24:35.844Z,12.77
2022-10-30T16:27:14.428Z,12.17
2022-10-30T16:29:42.340Z,10.47
2022-10-30T16:32:16.077Z,12.50
2022-10-30T16:34:45.321Z,13.20
2022-10-30T16:37:20.819Z,13.73
2022-10-30T16:39:50.785Z,11.80
2022-10-30T16:42:23.749Z,12.57
2022-10-30T16:44:53.052Z,12.57
2022-10-30T16:47:25.017Z,11.67
2022-10-30T16:49:57.724Z,11.77
2022-10-30T16:52:37.354Z,12.20
2022-10-30T16:55:19.914Z,14.27
2022-10-30T16:57:54.472Z,13.10
2022-10-30T17:00:27.273Z,14.37
2022-10-30T17:02:57.631Z,14.90
2022-10-30T17:05:29.116Z,15.63
2022-10-30T17:07:59.492Z,17.30
2022-10-30T17:10:45.436Z,15.83
2022-10-30T17:13:36.689Z,14.30
2022-10-30T17:16:20.322Z,14.10
2022-10-30T17:18:52.853Z,16.67
2022-10-30T17:21:41.147Z,14.50
2022-10-30T17:24:41.551Z,13.33
2022-10-30T17:27:28.638Z,14.33
2022-10-30T17:29:56.182Z,13.53
2022-10-30T17:32:42.494Z,13.93
2022-10-30T17:35:19.281Z,15.00
2022-10-30T17:37:46.747Z,14.93
2022-10-30T17:40:14.663Z,15.03
2022-10-30T17:42:41.959Z,15.33
2022-10-30T17:45:13.817Z,15.33
2022-10-30T17:47:41.437Z,14.23
2022-10-30T17:50:09.222Z,15.03
2022-10-30T17:52:36.566Z,16.80
2022-10-30T17:55:19.821Z,15.60
2022-10-30T17:57:47.260Z,16.43
2022-10-30T18:00:14.858Z,15.90
2022-10-30T18:02:42.247Z,16.97
2022-10-30T18:05:20.758Z,15.80
2022-10-30T18:10:20.872Z,18.23
2022-10-30T18:12:48.418Z,18.77
2022-10-30T18:15:26.836Z,19.17
2022-10-30T18:17:54.491Z,17.47
2022-10-30T18:20:21.912Z,18.00
2022-10-30T18:22:49.672Z,17.50
2022-10-30T18:25:22.922Z,18.17
2022-10-30T18:27:51.989Z,17.30
2022-10-30T18:30:20.484Z,17.90
2022-10-30T18:32:48.403Z,17.00
2022-10-30T18:35:26.185Z,16.73
2022-10-30T18:37:53.891Z,16.33
2022-10-30T18:40:22.749Z,17.10
2022-10-30T18:42:50.316Z,17.20
2022-10-30T18:45:27.842Z,17.60
2022-10-30T18:47:56.162Z,17.43
2022-10-30T18:50:24.711Z,18.10
2022-10-30T18:52:52.023Z,17.33
2022-10-30T18:55:23.828Z,18.97
2022-10-30T18:57:52.375Z,17.40
2022-10-30T19:00:23.537Z,17.83
2022-10-30T19:02:51.853Z,18.70
2022-10-30T19:05:49.993Z,17.93
2022-10-30T19:08:17.433Z,18.40
2022-10-30T19:10:46.385Z,18.00
2022-10-30T19:13:16.128Z,17.00
2022-10-30T19:15:47.225Z,17.07
2022-10-30T19:18:15.660Z,17.70
2022-10-30T19:21:03.324Z,17.80
2022-10-30T19:23:30.841Z,16.97
2022-10-30T19:25:58.245Z,17.37
2022-10-30T19:28:25.871Z,16.83
2022-10-30T19:30:54.591Z,16.50
2022-10-30T19:33:23.622Z,18.43
2022-10-30T19:36:00.835Z,17.30
2022-10-30T19:38:28.916Z,17.70
2022-10-30T19:40:56.297Z,18.10
2022-10-30T19:43:23.785Z,17.87
2022-10-30T19:45:56.840Z,17.70
2022-10-30T19:48:55.383Z,18.07
2022-10-30T19:51:11.978Z,17.87
2022-10-30T19:53:40.287Z,19.20
2022-10-30T19:56:10.892Z,19.27
2022-10-30T19:58:38.209Z,19.70
2022-10-30T20:01:05.689Z,19.93
2022-10-30T20:03:33.031Z,19.10
2022-10-30T20:06:00.326Z,19.97
2022-10-30T20:08:28.102Z,19.23
2022-10-30T20:10:57.601Z,21.43
2022-10-30T20:13:26.112Z,19.00
2022-10-30T20:15:55.103Z,17.83
2022-10-30T20:18:30.004Z,19.00
2022-10-30T20:21:02.446Z,19.50
2022-10-30T20:23:29.906Z,19.33
2022-10-30T20:26:03.145Z,19.73
2022-10-30T20:28:36.672Z,20.47
2022-10-30T20:31:05.272Z,19.63
2022-10-30T20:33:33.278Z,20.40
2022-10-30T20:36:00.633Z,19.00
2022-10-30T20:38:30.430Z,18.03
2022-10-30T20:40:59.564Z,19.80
2022-10-30T20:43:35.436Z,19.47
2022-10-30T20:46:04.824Z,18.10
2022-10-30T20:48:32.544Z,19.20
2022-10-30T20:51:01.602Z,19.40
2022-10-30T20:53:29.644Z,21.03
2022-10-30T20:55:57.135Z,20.17
2022-10-30T20:58:24.973Z,20.47
2022-10-30T21:00:55.783Z,20.27
2022-10-30T21:03:23.978Z,19.90
2022-10-30T21:06:01.310Z,20.40
2022-10-30T21:08:33.698Z,21.30
2022-10-30T21:11:06.020Z,21.70
2022-10-30T21:13:34.502Z,22.00
2022-10-30T21:16:05.438Z,23.90
2022-10-30T21:18:32.774Z,22.00
2022-10-30T21:21:08.259Z,21.07
2022-10-30T21:23:35.554Z,22.40
2022-10-30T21:26:07.575Z,21.50
2022-10-30T21:28:34.788Z,20.90
2022-10-30T21:31:08.885Z,21.67
2022-10-30T21:33:37.135Z,22.73
2022-10-30T21:36:13.405Z,23.67
2022-10-30T21:38:42.001Z,22.13
2022-10-30T21:41:11.044Z,22.90
2022-10-30T21:43:38.224Z,23.47
2022-10-30T21:46:10.328Z,22.00
2022-10-30T21:48:37.886Z,19.67
2022-10-30T21:51:16.396Z,18.63
2022-10-30T21:53:44.749Z,21.20
2022-10-30T21:56:15.088Z,19.90
2022-10-30T21:58:43.290Z,20.77
2022-10-30T22:01:19.583Z,19.60
2022-10-30T22:03:47.032Z,21.93
2022-10-30T22:06:15.941Z,21.93
2022-10-30T22:08:50.996Z,20.37
2022-10-30T22:11:18.782Z,20.23
2022-10-30T22:13:46.613Z,20.40
2022-10-30T22:16:15.323Z,21.47
2022-10-30T22:18:42.558Z,21.47
2022-10-30T22:21:11.918Z,23.10
2022-10-30T22:23:39.884Z,23.77
2022-10-30T22:26:10.978Z,21.87
2022-10-30T22:28:38.114Z,23.53
2022-10-30T22:31:07.680Z,22.50
2022-10-30T22:33:36.941Z,22.93
2022-10-30T22:36:10.413Z,21.97
2022-10-30T22:38:37.535Z,22.17
2022-10-30T22:41:09.681Z,21.60
2022-10-30T22:43:36.851Z,21.83
2022-10-30T22:46:04.217Z,23.77
2022-10-30T22:48:31.545Z,24.40
2022-10-30T22:51:00.055Z,22.20
2022-10-30T22:53:28.407Z,23.80
2022-10-30T22:55:55.560Z,24.00
2022-10-30T22:58:27.440Z,24.07
2022-10-30T23:01:04.691Z,22.90
2022-10-30T23:03:32.078Z,22.53
2022-10-30T23:05:59.836Z,25.23
2022-10-30T23:08:27.183Z,24.17
2022-10-30T23:10:54.702Z,22.57
2022-10-30T23:16:00.585Z,23.37
2022-10-30T23:18:29.155Z,22.20
2022-10-30T23:21:02.088Z,24.17
2022-10-30T23:23:29.428Z,22.60
2022-10-30T23:26:02.383Z,22.20
2022-10-30T23:28:29.641Z,23.23
2022-10-30T23:30:56.804Z,24.50
2022-10-30T23:33:23.941Z,22.50
2022-10-30T23:35:51.146Z,23.37
2022-10-30T23:38:18.280Z,22.60
2022-10-30T23:40:45.446Z,24.57
2022-10-30T23:45:45.903Z,23.30
2022-10-30T23:48:13.388Z,24.10
2022-10-30T23:50:40.511Z,24.57
2022-10-30T23:53:08.112Z,22.30
2022-10-30T23:55:35.235Z,22.30
2022-10-30T23:58:02.958Z,24.73
